sensor_id;sensor_type;location;lat;lon;timestamp;temperature;humidity
77305;DHT22;66364;52.622;7.746;2023-05-07T00:00:35;12.40;99.90
77305;DHT22;66364;52.622;7.746;2023-05-07T00:02:36;12.30;99.90
77305;DHT22;66364;52.622;7.746;2023-05-07T00:04:37;12.20;99.90
77305;DHT22;66364;52.622;7.746;2023-05-07T00:06:37;12.10;99.90
77305;DHT22;66364;52.622;7.746;2023-05-07T00:08:38;11.90;99.90
77305;DHT22;66364;52.622;7.746;2023-05-07T00:10:40;12.20;99.90
77305;DHT22;66364;52.622;7.746;2023-05-07T00:12:41;12.30;99.90
77305;DHT22;66364;52.622;7.746;2023-05-07T00:14:43;12.00;99.90
77305;DHT22;66364;52.622;7.746;2023-05-07T00:16:44;12.10;99.90
77305;DHT22;66364;52.622;7.746;2023-05-07T00:18:45;12.00;99.90
77305;DHT22;66364;52.622;7.746;2023-05-07T00:20:46;12.10;99.90
77305;DHT22;66364;52.622;7.746;2023-05-07T00:22:46;12.20;99.90
77305;DHT22;66364;52.622;7.746;2023-05-07T00:24:47;12.20;99.90
77305;DHT22;66364;52.622;7.746;2023-05-07T00:26:48;12.00;99.90
77305;DHT22;66364;52.622;7.746;2023-05-07T00:28:49;12.50;99.90
77305;DHT22;66364;52.622;7.746;2023-05-07T00:30:52;12.20;99.90
77305;DHT22;66364;52.622;7.746;2023-05-07T00:32:53;12.10;99.90
77305;DHT22;66364;52.622;7.746;2023-05-07T00:34:54;12.00;99.90
77305;DHT22;66364;52.622;7.746;2023-05-07T00:36:55;12.30;99.90
77305;DHT22;66364;52.622;7.746;2023-05-07T00:39:01;12.10;99.90
77305;DHT22;66364;52.622;7.746;2023-05-07T00:41:03;12.40;99.90
77305;DHT22;66364;52.622;7.746;2023-05-07T00:43:03;12.10;99.90
77305;DHT22;66364;52.622;7.746;2023-05-07T00:45:05;12.10;99.90
77305;DHT22;66364;52.622;7.746;2023-05-07T00:47:06;12.10;99.90
77305;DHT22;66364;52.622;7.746;2023-05-07T00:49:08;12.10;99.90
77305;DHT22;66364;52.622;7.746;2023-05-07T00:51:10;12.10;99.90
77305;DHT22;66364;52.622;7.746;2023-05-07T00:53:11;12.00;99.90
77305;DHT22;66364;52.622;7.746;2023-05-07T00:55:13;12.00;99.90
77305;DHT22;66364;52.622;7.746;2023-05-07T00:57:15;11.90;99.90
77305;DHT22;66364;52.622;7.746;2023-05-07T00:59:17;11.90;99.90
77305;DHT22;66364;52.622;7.746;2023-05-07T01:01:19;12.00;99.90
77305;DHT22;66364;52.622;7.746;2023-05-07T01:03:20;11.80;99.90
77305;DHT22;66364;52.622;7.746;2023-05-07T01:05:23;11.90;99.90
77305;DHT22;66364;52.622;7.746;2023-05-07T01:07:25;11.80;99.90
77305;DHT22;66364;52.622;7.746;2023-05-07T01:09:26;11.50;99.90
77305;DHT22;66364;52.622;7.746;2023-05-07T01:11:28;11.80;99.90
77305;DHT22;66364;52.622;7.746;2023-05-07T01:13:29;11.90;99.90
77305;DHT22;66364;52.622;7.746;2023-05-07T01:15:30;11.90;99.90
77305;DHT22;66364;52.622;7.746;2023-05-07T01:17:36;12.10;99.90
77305;DHT22;66364;52.622;7.746;2023-05-07T01:19:37;12.00;99.90
77305;DHT22;66364;52.622;7.746;2023-05-07T01:21:38;11.80;99.90
77305;DHT22;66364;52.622;7.746;2023-05-07T01:23:39;11.90;99.90
77305;DHT22;66364;52.622;7.746;2023-05-07T01:25:40;11.80;99.90
77305;DHT22;66364;52.622;7.746;2023-05-07T01:27:41;11.80;99.90
77305;DHT22;66364;52.622;7.746;2023-05-07T01:29:43;11.90;99.90
77305;DHT22;66364;52.622;7.746;2023-05-07T01:31:44;11.80;99.90
77305;DHT22;66364;52.622;7.746;2023-05-07T01:33:45;11.90;99.90
77305;DHT22;66364;52.622;7.746;2023-05-07T01:35:51;11.80;99.90
77305;DHT22;66364;52.622;7.746;2023-05-07T01:37:54;12.00;99.90
77305;DHT22;66364;52.622;7.746;2023-05-07T01:39:55;12.00;99.90
77305;DHT22;66364;52.622;7.746;2023-05-07T01:41:58;11.80;99.90
77305;DHT22;66364;52.622;7.746;2023-05-07T01:44:00;11.90;99.90
77305;DHT22;66364;52.622;7.746;2023-05-07T01:46:02;11.90;99.90
77305;DHT22;66364;52.622;7.746;2023-05-07T01:48:05;11.80;99.90
77305;DHT22;66364;52.622;7.746;2023-05-07T01:50:07;11.70;99.90
77305;DHT22;66364;52.622;7.746;2023-05-07T01:52:10;11.80;99.90
77305;DHT22;66364;52.622;7.746;2023-05-07T01:54:11;12.00;99.90
77305;DHT22;66364;52.622;7.746;2023-05-07T01:56:12;12.00;99.90
77305;DHT22;66364;52.622;7.746;2023-05-07T01:58:14;11.90;99.90
77305;DHT22;66364;52.622;7.746;2023-05-07T02:00:15;11.70;99.90
77305;DHT22;66364;52.622;7.746;2023-05-07T02:02:20;11.90;99.90
77305;DHT22;66364;52.622;7.746;2023-05-07T02:04:21;11.70;99.90
77305;DHT22;66364;52.622;7.746;2023-05-07T02:06:21;11.60;99.90
77305;DHT22;66364;52.622;7.746;2023-05-07T02:08:23;11.60;99.90
77305;DHT22;66364;52.622;7.746;2023-05-07T02:10:24;11.50;99.90
77305;DHT22;66364;52.622;7.746;2023-05-07T02:12:24;11.60;99.90
77305;DHT22;66364;52.622;7.746;2023-05-07T02:14:26;11.70;99.90
77305;DHT22;66364;52.622;7.746;2023-05-07T02:16:27;11.60;99.90
77305;DHT22;66364;52.622;7.746;2023-05-07T02:18:28;11.70;99.90
77305;DHT22;66364;52.622;7.746;2023-05-07T02:20:29;11.80;99.90
77305;DHT22;66364;52.622;7.746;2023-05-07T02:22:30;11.70;99.90
77305;DHT22;66364;52.622;7.746;2023-05-07T02:24:31;11.90;99.90
77305;DHT22;66364;52.622;7.746;2023-05-07T02:26:32;11.80;99.90
77305;DHT22;66364;52.622;7.746;2023-05-07T02:28:33;11.70;99.90
77305;DHT22;66364;52.622;7.746;2023-05-07T02:30:35;11.70;99.90
77305;DHT22;66364;52.622;7.746;2023-05-07T02:32:37;11.60;99.90
77305;DHT22;66364;52.622;7.746;2023-05-07T02:34:38;11.70;99.90
77305;DHT22;66364;52.622;7.746;2023-05-07T02:36:39;11.60;99.90
77305;DHT22;66364;52.622;7.746;2023-05-07T02:38:40;11.50;99.90
77305;DHT22;66364;52.622;7.746;2023-05-07T02:40:41;11.40;99.90
77305;DHT22;66364;52.622;7.746;2023-05-07T02:42:42;11.70;99.90
77305;DHT22;66364;52.622;7.746;2023-05-07T02:44:43;11.40;99.90
77305;DHT22;66364;52.622;7.746;2023-05-07T02:46:45;11.50;99.90
77305;DHT22;66364;52.622;7.746;2023-05-07T02:48:47;11.50;99.90
77305;DHT22;66364;52.622;7.746;2023-05-07T02:50:48;11.50;99.90
77305;DHT22;66364;52.622;7.746;2023-05-07T02:52:50;11.50;99.90
77305;DHT22;66364;52.622;7.746;2023-05-07T02:54:53;11.30;99.90
77305;DHT22;66364;52.622;7.746;2023-05-07T02:56:56;11.30;99.90
77305;DHT22;66364;52.622;7.746;2023-05-07T02:58:57;11.40;99.90
77305;DHT22;66364;52.622;7.746;2023-05-07T03:00:58;11.50;99.90
77305;DHT22;66364;52.622;7.746;2023-05-07T03:03:00;11.50;99.90
77305;DHT22;66364;52.622;7.746;2023-05-07T03:05:04;11.40;99.90
77305;DHT22;66364;52.622;7.746;2023-05-07T03:07:06;11.40;99.90
77305;DHT22;66364;52.622;7.746;2023-05-07T03:09:09;11.20;99.90
77305;DHT22;66364;52.622;7.746;2023-05-07T03:11:12;11.40;99.90
77305;DHT22;66364;52.622;7.746;2023-05-07T03:13:14;11.20;99.90
77305;DHT22;66364;52.622;7.746;2023-05-07T03:15:17;11.30;99.90
77305;DHT22;66364;52.622;7.746;2023-05-07T03:17:21;11.40;99.90
77305;DHT22;66364;52.622;7.746;2023-05-07T03:19:23;11.30;99.90
77305;DHT22;66364;52.622;7.746;2023-05-07T03:21:26;11.30;99.90
77305;DHT22;66364;52.622;7.746;2023-05-07T03:23:29;11.40;99.90
77305;DHT22;66364;52.622;7.746;2023-05-07T03:25:32;11.30;99.90
77305;DHT22;66364;52.622;7.746;2023-05-07T03:27:32;11.20;99.90
77305;DHT22;66364;52.622;7.746;2023-05-07T03:29:33;11.20;99.90
77305;DHT22;66364;52.622;7.746;2023-05-07T03:31:36;11.20;99.90
77305;DHT22;66364;52.622;7.746;2023-05-07T03:33:54;11.00;99.90
77305;DHT22;66364;52.622;7.746;2023-05-07T03:35:54;11.20;99.90
77305;DHT22;66364;52.622;7.746;2023-05-07T03:37:56;11.00;99.90
77305;DHT22;66364;52.622;7.746;2023-05-07T03:39:57;11.30;99.90
77305;DHT22;66364;52.622;7.746;2023-05-07T03:41:58;11.10;99.90
77305;DHT22;66364;52.622;7.746;2023-05-07T03:43:59;11.20;99.90
77305;DHT22;66364;52.622;7.746;2023-05-07T03:46:01;11.50;99.90
77305;DHT22;66364;52.622;7.746;2023-05-07T03:48:03;11.20;99.90
77305;DHT22;66364;52.622;7.746;2023-05-07T03:50:06;11.40;99.90
77305;DHT22;66364;52.622;7.746;2023-05-07T03:52:09;11.50;99.90
77305;DHT22;66364;52.622;7.746;2023-05-07T03:54:10;11.30;99.90
77305;DHT22;66364;52.622;7.746;2023-05-07T03:56:11;11.30;99.90
77305;DHT22;66364;52.622;7.746;2023-05-07T03:58:12;11.50;99.90
77305;DHT22;66364;52.622;7.746;2023-05-07T04:00:13;11.20;99.90
77305;DHT22;66364;52.622;7.746;2023-05-07T04:02:14;11.20;99.90
77305;DHT22;66364;52.622;7.746;2023-05-07T04:04:15;11.30;99.90
77305;DHT22;66364;52.622;7.746;2023-05-07T04:06:16;11.30;99.90
77305;DHT22;66364;52.622;7.746;2023-05-07T04:08:18;11.40;99.90
77305;DHT22;66364;52.622;7.746;2023-05-07T04:10:19;11.20;99.90
77305;DHT22;66364;52.622;7.746;2023-05-07T04:12:20;11.00;99.90
77305;DHT22;66364;52.622;7.746;2023-05-07T04:14:21;11.10;99.90
77305;DHT22;66364;52.622;7.746;2023-05-07T04:16:22;11.20;99.90
77305;DHT22;66364;52.622;7.746;2023-05-07T04:18:23;11.10;99.90
77305;DHT22;66364;52.622;7.746;2023-05-07T04:20:24;11.40;99.90
77305;DHT22;66364;52.622;7.746;2023-05-07T04:22:25;11.20;99.90
77305;DHT22;66364;52.622;7.746;2023-05-07T04:24:26;11.30;99.90
77305;DHT22;66364;52.622;7.746;2023-05-07T04:26:27;11.30;99.90
77305;DHT22;66364;52.622;7.746;2023-05-07T04:28:28;11.40;99.90
77305;DHT22;66364;52.622;7.746;2023-05-07T04:30:30;11.20;99.90
77305;DHT22;66364;52.622;7.746;2023-05-07T04:32:30;11.10;99.90
77305;DHT22;66364;52.622;7.746;2023-05-07T04:34:31;11.10;99.90
77305;DHT22;66364;52.622;7.746;2023-05-07T04:36:33;11.40;99.90
77305;DHT22;66364;52.622;7.746;2023-05-07T04:38:34;11.30;99.90
77305;DHT22;66364;52.622;7.746;2023-05-07T04:40:36;11.00;99.90
77305;DHT22;66364;52.622;7.746;2023-05-07T04:42:37;11.10;99.90
77305;DHT22;66364;52.622;7.746;2023-05-07T04:44:37;11.10;99.90
77305;DHT22;66364;52.622;7.746;2023-05-07T04:46:38;11.10;99.90
77305;DHT22;66364;52.622;7.746;2023-05-07T04:48:40;11.20;99.90
77305;DHT22;66364;52.622;7.746;2023-05-07T04:50:40;11.30;99.90
77305;DHT22;66364;52.622;7.746;2023-05-07T04:52:41;11.30;99.90
77305;DHT22;66364;52.622;7.746;2023-05-07T04:54:43;11.30;99.90
77305;DHT22;66364;52.622;7.746;2023-05-07T04:56:44;11.50;99.90
77305;DHT22;66364;52.622;7.746;2023-05-07T04:58:45;11.20;99.90
77305;DHT22;66364;52.622;7.746;2023-05-07T05:00:46;11.40;99.90
77305;DHT22;66364;52.622;7.746;2023-05-07T05:02:47;11.30;99.90
77305;DHT22;66364;52.622;7.746;2023-05-07T05:04:48;11.30;99.90
77305;DHT22;66364;52.622;7.746;2023-05-07T05:06:49;11.30;99.90
77305;DHT22;66364;52.622;7.746;2023-05-07T05:08:50;11.20;99.90
77305;DHT22;66364;52.622;7.746;2023-05-07T05:10:51;11.40;99.90
77305;DHT22;66364;52.622;7.746;2023-05-07T05:12:52;11.40;99.90
77305;DHT22;66364;52.622;7.746;2023-05-07T05:14:54;11.40;99.90
77305;DHT22;66364;52.622;7.746;2023-05-07T05:16:55;11.30;99.90
77305;DHT22;66364;52.622;7.746;2023-05-07T05:18:57;11.00;99.90
77305;DHT22;66364;52.622;7.746;2023-05-07T05:20:58;11.20;99.90
77305;DHT22;66364;52.622;7.746;2023-05-07T05:22:59;11.40;99.90
77305;DHT22;66364;52.622;7.746;2023-05-07T05:25:00;11.20;99.90
77305;DHT22;66364;52.622;7.746;2023-05-07T05:27:01;11.30;99.90
77305;DHT22;66364;52.622;7.746;2023-05-07T05:29:02;11.20;99.90
77305;DHT22;66364;52.622;7.746;2023-05-07T05:31:03;11.20;99.90
77305;DHT22;66364;52.622;7.746;2023-05-07T05:33:04;11.20;99.90
77305;DHT22;66364;52.622;7.746;2023-05-07T05:35:05;11.30;99.90
77305;DHT22;66364;52.622;7.746;2023-05-07T05:37:06;11.40;99.90
77305;DHT22;66364;52.622;7.746;2023-05-07T05:39:07;11.30;99.90
77305;DHT22;66364;52.622;7.746;2023-05-07T05:41:08;11.30;99.90
77305;DHT22;66364;52.622;7.746;2023-05-07T05:43:10;11.30;99.90
77305;DHT22;66364;52.622;7.746;2023-05-07T05:45:11;11.10;99.90
77305;DHT22;66364;52.622;7.746;2023-05-07T05:47:13;11.20;99.90
77305;DHT22;66364;52.622;7.746;2023-05-07T05:49:16;11.20;99.90
77305;DHT22;66364;52.622;7.746;2023-05-07T05:51:17;11.20;99.90
77305;DHT22;66364;52.622;7.746;2023-05-07T05:53:18;11.50;99.90
77305;DHT22;66364;52.622;7.746;2023-05-07T05:55:19;11.40;99.90
77305;DHT22;66364;52.622;7.746;2023-05-07T05:57:20;11.40;99.90
77305;DHT22;66364;52.622;7.746;2023-05-07T05:59:21;11.30;99.90
77305;DHT22;66364;52.622;7.746;2023-05-07T06:01:22;11.40;99.90
77305;DHT22;66364;52.622;7.746;2023-05-07T06:03:24;11.30;99.90
77305;DHT22;66364;52.622;7.746;2023-05-07T06:05:25;11.40;99.90
77305;DHT22;66364;52.622;7.746;2023-05-07T06:07:25;11.50;99.90
77305;DHT22;66364;52.622;7.746;2023-05-07T06:09:26;11.60;99.90
77305;DHT22;66364;52.622;7.746;2023-05-07T06:11:27;11.60;99.90
77305;DHT22;66364;52.622;7.746;2023-05-07T06:13:28;11.50;99.90
77305;DHT22;66364;52.622;7.746;2023-05-07T06:15:29;11.40;99.90
77305;DHT22;66364;52.622;7.746;2023-05-07T06:17:30;11.40;99.90
77305;DHT22;66364;52.622;7.746;2023-05-07T06:19:31;11.30;99.90
77305;DHT22;66364;52.622;7.746;2023-05-07T06:21:32;11.70;99.90
77305;DHT22;66364;52.622;7.746;2023-05-07T06:23:33;11.40;99.90
77305;DHT22;66364;52.622;7.746;2023-05-07T06:25:34;11.30;99.90
77305;DHT22;66364;52.622;7.746;2023-05-07T06:27:35;11.40;99.90
77305;DHT22;66364;52.622;7.746;2023-05-07T06:29:36;11.50;99.90
77305;DHT22;66364;52.622;7.746;2023-05-07T06:31:37;11.30;99.90
77305;DHT22;66364;52.622;7.746;2023-05-07T06:33:39;11.50;99.90
77305;DHT22;66364;52.622;7.746;2023-05-07T06:35:40;11.50;99.90
77305;DHT22;66364;52.622;7.746;2023-05-07T06:37:41;11.40;99.90
77305;DHT22;66364;52.622;7.746;2023-05-07T06:39:43;11.60;99.90
77305;DHT22;66364;52.622;7.746;2023-05-07T06:41:44;11.40;99.90
77305;DHT22;66364;52.622;7.746;2023-05-07T06:43:45;11.50;99.90
77305;DHT22;66364;52.622;7.746;2023-05-07T06:45:45;11.50;99.90
77305;DHT22;66364;52.622;7.746;2023-05-07T06:47:47;11.50;99.90
77305;DHT22;66364;52.622;7.746;2023-05-07T06:49:48;11.40;99.90
77305;DHT22;66364;52.622;7.746;2023-05-07T06:51:49;11.30;99.90
77305;DHT22;66364;52.622;7.746;2023-05-07T06:53:50;11.60;99.90
77305;DHT22;66364;52.622;7.746;2023-05-07T06:55:51;11.60;99.90
77305;DHT22;66364;52.622;7.746;2023-05-07T06:57:52;11.80;99.90
77305;DHT22;66364;52.622;7.746;2023-05-07T06:59:53;11.90;99.90
77305;DHT22;66364;52.622;7.746;2023-05-07T07:01:54;11.90;99.90
77305;DHT22;66364;52.622;7.746;2023-05-07T07:03:56;11.90;99.90
77305;DHT22;66364;52.622;7.746;2023-05-07T07:05:57;12.00;99.90
77305;DHT22;66364;52.622;7.746;2023-05-07T07:08:04;12.10;99.90
77305;DHT22;66364;52.622;7.746;2023-05-07T07:10:06;11.80;99.90
77305;DHT22;66364;52.622;7.746;2023-05-07T07:12:07;11.80;99.90
77305;DHT22;66364;52.622;7.746;2023-05-07T07:14:08;11.70;99.90
77305;DHT22;66364;52.622;7.746;2023-05-07T07:16:08;11.70;99.90
77305;DHT22;66364;52.622;7.746;2023-05-07T07:18:09;11.90;99.90
77305;DHT22;66364;52.622;7.746;2023-05-07T07:20:11;11.90;99.90
77305;DHT22;66364;52.622;7.746;2023-05-07T07:22:12;12.20;99.90
77305;DHT22;66364;52.622;7.746;2023-05-07T07:24:15;12.00;99.90
77305;DHT22;66364;52.622;7.746;2023-05-07T07:26:17;12.20;99.90
77305;DHT22;66364;52.622;7.746;2023-05-07T07:28:20;12.30;99.90
77305;DHT22;66364;52.622;7.746;2023-05-07T07:30:21;12.20;99.90
77305;DHT22;66364;52.622;7.746;2023-05-07T07:32:29;12.00;99.90
77305;DHT22;66364;52.622;7.746;2023-05-07T07:34:29;12.00;99.90
77305;DHT22;66364;52.622;7.746;2023-05-07T07:36:39;12.20;99.90
77305;DHT22;66364;52.622;7.746;2023-05-07T07:38:40;12.30;99.90
77305;DHT22;66364;52.622;7.746;2023-05-07T07:40:41;12.30;99.90
77305;DHT22;66364;52.622;7.746;2023-05-07T07:42:43;12.30;99.90
77305;DHT22;66364;52.622;7.746;2023-05-07T07:44:44;12.20;99.90
77305;DHT22;66364;52.622;7.746;2023-05-07T07:46:45;12.30;99.90
77305;DHT22;66364;52.622;7.746;2023-05-07T07:48:46;12.30;99.90
77305;DHT22;66364;52.622;7.746;2023-05-07T07:50:49;12.30;99.90
77305;DHT22;66364;52.622;7.746;2023-05-07T07:52:50;12.10;99.90
77305;DHT22;66364;52.622;7.746;2023-05-07T07:54:59;12.30;99.90
77305;DHT22;66364;52.622;7.746;2023-05-07T07:57:15;12.20;99.90
77305;DHT22;66364;52.622;7.746;2023-05-07T07:59:16;12.30;99.90
77305;DHT22;66364;52.622;7.746;2023-05-07T08:01:17;12.70;99.90
77305;DHT22;66364;52.622;7.746;2023-05-07T08:03:18;12.40;99.90
77305;DHT22;66364;52.622;7.746;2023-05-07T08:05:20;12.40;99.90
77305;DHT22;66364;52.622;7.746;2023-05-07T08:07:21;12.20;99.90
77305;DHT22;66364;52.622;7.746;2023-05-07T08:09:22;12.20;99.90
77305;DHT22;66364;52.622;7.746;2023-05-07T08:11:23;12.40;99.90
77305;DHT22;66364;52.622;7.746;2023-05-07T08:13:25;12.50;99.90
77305;DHT22;66364;52.622;7.746;2023-05-07T08:15:26;12.50;99.90
77305;DHT22;66364;52.622;7.746;2023-05-07T08:17:27;12.50;99.90
77305;DHT22;66364;52.622;7.746;2023-05-07T08:19:28;12.50;99.90
77305;DHT22;66364;52.622;7.746;2023-05-07T08:21:28;12.50;99.90
77305;DHT22;66364;52.622;7.746;2023-05-07T08:23:29;12.50;99.90
77305;DHT22;66364;52.622;7.746;2023-05-07T08:25:30;12.80;99.90
77305;DHT22;66364;52.622;7.746;2023-05-07T08:27:31;12.70;99.90
77305;DHT22;66364;52.622;7.746;2023-05-07T08:29:32;12.80;99.90
77305;DHT22;66364;52.622;7.746;2023-05-07T08:31:33;12.80;99.90
77305;DHT22;66364;52.622;7.746;2023-05-07T08:33:34;12.70;99.90
77305;DHT22;66364;52.622;7.746;2023-05-07T08:35:35;12.80;99.90
77305;DHT22;66364;52.622;7.746;2023-05-07T08:37:36;12.80;99.90
77305;DHT22;66364;52.622;7.746;2023-05-07T08:39:37;12.80;99.90
77305;DHT22;66364;52.622;7.746;2023-05-07T08:41:39;12.80;99.90
77305;DHT22;66364;52.622;7.746;2023-05-07T08:43:48;12.80;99.90
77305;DHT22;66364;52.622;7.746;2023-05-07T08:45:52;13.20;99.90
77305;DHT22;66364;52.622;7.746;2023-05-07T08:47:58;13.10;99.90
77305;DHT22;66364;52.622;7.746;2023-05-07T08:49:59;13.30;99.90
77305;DHT22;66364;52.622;7.746;2023-05-07T08:52:00;13.30;99.90
77305;DHT22;66364;52.622;7.746;2023-05-07T08:54:02;13.40;99.90
77305;DHT22;66364;52.622;7.746;2023-05-07T08:56:03;13.20;99.90
77305;DHT22;66364;52.622;7.746;2023-05-07T08:58:04;13.30;99.90
77305;DHT22;66364;52.622;7.746;2023-05-07T09:00:06;13.40;99.90
77305;DHT22;66364;52.622;7.746;2023-05-07T09:02:09;13.50;99.90
77305;DHT22;66364;52.622;7.746;2023-05-07T09:04:11;13.40;99.90
77305;DHT22;66364;52.622;7.746;2023-05-07T09:06:13;13.50;99.90
77305;DHT22;66364;52.622;7.746;2023-05-07T09:08:15;13.30;99.90
77305;DHT22;66364;52.622;7.746;2023-05-07T09:10:16;13.20;99.90
77305;DHT22;66364;52.622;7.746;2023-05-07T09:12:17;13.20;99.90
77305;DHT22;66364;52.622;7.746;2023-05-07T09:14:21;13.20;99.90
77305;DHT22;66364;52.622;7.746;2023-05-07T09:16:23;13.40;99.90
77305;DHT22;66364;52.622;7.746;2023-05-07T09:18:24;13.50;99.90
77305;DHT22;66364;52.622;7.746;2023-05-07T09:20:25;13.50;99.90
77305;DHT22;66364;52.622;7.746;2023-05-07T09:22:26;13.50;99.90
77305;DHT22;66364;52.622;7.746;2023-05-07T09:24:28;13.50;99.90
77305;DHT22;66364;52.622;7.746;2023-05-07T09:26:29;13.50;99.90
77305;DHT22;66364;52.622;7.746;2023-05-07T09:28:30;13.50;99.90
77305;DHT22;66364;52.622;7.746;2023-05-07T09:30:31;13.70;99.90
77305;DHT22;66364;52.622;7.746;2023-05-07T09:32:36;13.50;99.90
77305;DHT22;66364;52.622;7.746;2023-05-07T09:34:37;13.70;99.90
77305;DHT22;66364;52.622;7.746;2023-05-07T09:36:38;13.80;99.90
77305;DHT22;66364;52.622;7.746;2023-05-07T09:38:40;13.90;99.90
77305;DHT22;66364;52.622;7.746;2023-05-07T09:40:41;14.20;99.90
77305;DHT22;66364;52.622;7.746;2023-05-07T09:42:42;14.30;99.90
77305;DHT22;66364;52.622;7.746;2023-05-07T09:44:44;14.40;99.90
77305;DHT22;66364;52.622;7.746;2023-05-07T09:46:47;14.70;99.90
77305;DHT22;66364;52.622;7.746;2023-05-07T09:48:52;14.90;99.90
77305;DHT22;66364;52.622;7.746;2023-05-07T09:50:55;14.90;99.90
77305;DHT22;66364;52.622;7.746;2023-05-07T09:52:58;14.90;99.90
77305;DHT22;66364;52.622;7.746;2023-05-07T09:55:15;14.70;99.90
77305;DHT22;66364;52.622;7.746;2023-05-07T09:57:18;14.40;99.90
77305;DHT22;66364;52.622;7.746;2023-05-07T09:59:21;14.60;99.90
77305;DHT22;66364;52.622;7.746;2023-05-07T10:01:25;14.50;99.90
77305;DHT22;66364;52.622;7.746;2023-05-07T10:03:27;14.60;99.90
77305;DHT22;66364;52.622;7.746;2023-05-07T10:05:30;14.80;99.90
77305;DHT22;66364;52.622;7.746;2023-05-07T10:07:32;14.70;99.90
77305;DHT22;66364;52.622;7.746;2023-05-07T10:09:34;14.60;99.90
77305;DHT22;66364;52.622;7.746;2023-05-07T10:11:37;14.70;99.90
77305;DHT22;66364;52.622;7.746;2023-05-07T10:13:38;14.60;99.90
77305;DHT22;66364;52.622;7.746;2023-05-07T10:15:41;14.60;99.90
77305;DHT22;66364;52.622;7.746;2023-05-07T10:17:42;14.50;99.90
77305;DHT22;66364;52.622;7.746;2023-05-07T10:19:44;14.50;99.90
77305;DHT22;66364;52.622;7.746;2023-05-07T10:21:59;14.50;99.90
77305;DHT22;66364;52.622;7.746;2023-05-07T10:24:20;14.50;99.90
77305;DHT22;66364;52.622;7.746;2023-05-07T10:26:23;14.80;99.90
77305;DHT22;66364;52.622;7.746;2023-05-07T10:28:25;14.80;99.90
77305;DHT22;66364;52.622;7.746;2023-05-07T10:30:51;14.90;99.90
77305;DHT22;66364;52.622;7.746;2023-05-07T10:32:59;15.00;99.90
77305;DHT22;66364;52.622;7.746;2023-05-07T10:34:58;14.90;99.90
77305;DHT22;66364;52.622;7.746;2023-05-07T10:37:00;15.20;99.90
77305;DHT22;66364;52.622;7.746;2023-05-07T10:39:03;15.30;99.90
77305;DHT22;66364;52.622;7.746;2023-05-07T10:41:05;15.40;99.90
77305;DHT22;66364;52.622;7.746;2023-05-07T10:43:06;15.50;99.90
77305;DHT22;66364;52.622;7.746;2023-05-07T10:45:14;15.30;99.90
77305;DHT22;66364;52.622;7.746;2023-05-07T10:47:16;15.20;99.90
77305;DHT22;66364;52.622;7.746;2023-05-07T10:49:18;15.60;99.90
77305;DHT22;66364;52.622;7.746;2023-05-07T10:51:20;15.70;99.90
77305;DHT22;66364;52.622;7.746;2023-05-07T10:53:22;15.70;99.90
77305;DHT22;66364;52.622;7.746;2023-05-07T10:55:24;15.70;99.90
77305;DHT22;66364;52.622;7.746;2023-05-07T10:57:33;15.70;99.90
77305;DHT22;66364;52.622;7.746;2023-05-07T10:59:36;15.90;99.90
77305;DHT22;66364;52.622;7.746;2023-05-07T11:04:17;16.40;99.90
77305;DHT22;66364;52.622;7.746;2023-05-07T11:06:16;16.60;99.90
77305;DHT22;66364;52.622;7.746;2023-05-07T11:08:17;16.40;99.90
77305;DHT22;66364;52.622;7.746;2023-05-07T11:10:19;16.30;99.90
77305;DHT22;66364;52.622;7.746;2023-05-07T11:14:46;16.90;99.90
77305;DHT22;66364;52.622;7.746;2023-05-07T11:16:47;17.30;99.90
77305;DHT22;66364;52.622;7.746;2023-05-07T11:18:50;17.20;99.90
77305;DHT22;66364;52.622;7.746;2023-05-07T11:20:56;17.40;99.90
77305;DHT22;66364;52.622;7.746;2023-05-07T11:22:58;17.70;99.90
77305;DHT22;66364;52.622;7.746;2023-05-07T11:24:59;17.50;99.90
77305;DHT22;66364;52.622;7.746;2023-05-07T11:27:00;17.10;99.90
77305;DHT22;66364;52.622;7.746;2023-05-07T11:29:02;16.80;99.90
77305;DHT22;66364;52.622;7.746;2023-05-07T11:31:04;16.60;99.90
77305;DHT22;66364;52.622;7.746;2023-05-07T11:33:06;16.50;99.90
77305;DHT22;66364;52.622;7.746;2023-05-07T11:35:07;16.30;99.90
77305;DHT22;66364;52.622;7.746;2023-05-07T11:37:09;16.20;99.90
77305;DHT22;66364;52.622;7.746;2023-05-07T11:39:31;16.00;99.90
77305;DHT22;66364;52.622;7.746;2023-05-07T11:41:34;15.90;99.90
77305;DHT22;66364;52.622;7.746;2023-05-07T11:43:35;15.70;99.90
77305;DHT22;66364;52.622;7.746;2023-05-07T11:45:36;15.60;99.90
77305;DHT22;66364;52.622;7.746;2023-05-07T11:47:37;15.70;99.90
77305;DHT22;66364;52.622;7.746;2023-05-07T11:49:38;15.80;99.90
77305;DHT22;66364;52.622;7.746;2023-05-07T11:51:40;16.00;99.90
77305;DHT22;66364;52.622;7.746;2023-05-07T11:53:49;15.70;99.90
77305;DHT22;66364;52.622;7.746;2023-05-07T11:55:55;15.50;99.90
77305;DHT22;66364;52.622;7.746;2023-05-07T11:57:56;15.80;99.90
77305;DHT22;66364;52.622;7.746;2023-05-07T11:59:58;16.00;99.90
77305;DHT22;66364;52.622;7.746;2023-05-07T12:01:59;16.20;99.90
77305;DHT22;66364;52.622;7.746;2023-05-07T12:04:02;16.40;99.90
77305;DHT22;66364;52.622;7.746;2023-05-07T12:06:07;16.30;99.90
77305;DHT22;66364;52.622;7.746;2023-05-07T12:08:08;16.40;99.90
77305;DHT22;66364;52.622;7.746;2023-05-07T12:10:11;16.50;99.90
77305;DHT22;66364;52.622;7.746;2023-05-07T12:12:12;16.30;99.90
77305;DHT22;66364;52.622;7.746;2023-05-07T12:14:14;16.60;99.90
77305;DHT22;66364;52.622;7.746;2023-05-07T12:16:15;17.00;99.90
77305;DHT22;66364;52.622;7.746;2023-05-07T12:18:17;16.90;99.90
77305;DHT22;66364;52.622;7.746;2023-05-07T12:20:18;17.10;99.90
77305;DHT22;66364;52.622;7.746;2023-05-07T12:22:19;17.40;99.90
77305;DHT22;66364;52.622;7.746;2023-05-07T12:24:20;17.70;99.90
77305;DHT22;66364;52.622;7.746;2023-05-07T12:26:21;17.60;99.90
77305;DHT22;66364;52.622;7.746;2023-05-07T12:28:23;17.30;99.90
77305;DHT22;66364;52.622;7.746;2023-05-07T12:30:24;17.20;99.90
77305;DHT22;66364;52.622;7.746;2023-05-07T12:32:26;17.30;99.90
77305;DHT22;66364;52.622;7.746;2023-05-07T12:34:27;17.10;99.90
77305;DHT22;66364;52.622;7.746;2023-05-07T12:36:37;16.80;99.90
77305;DHT22;66364;52.622;7.746;2023-05-07T12:38:39;16.80;99.90
77305;DHT22;66364;52.622;7.746;2023-05-07T12:40:45;16.60;99.90
77305;DHT22;66364;52.622;7.746;2023-05-07T12:42:49;16.50;99.90
77305;DHT22;66364;52.622;7.746;2023-05-07T12:44:51;16.90;99.90
77305;DHT22;66364;52.622;7.746;2023-05-07T12:46:53;17.20;99.90
77305;DHT22;66364;52.622;7.746;2023-05-07T12:48:54;17.50;99.90
77305;DHT22;66364;52.622;7.746;2023-05-07T12:50:56;17.90;99.90
77305;DHT22;66364;52.622;7.746;2023-05-07T12:52:58;18.10;99.90
77305;DHT22;66364;52.622;7.746;2023-05-07T12:55:07;17.50;99.90